sensor_id;sensor_type;location;lat;lon;timestamp;P1;durP1;ratioP1;P2;durP2;ratioP2
48935;SDS011;34745;52.276;10.528;2022-07-29T00:02:24;2.78;;;1.65;;
48935;SDS011;34745;52.276;10.528;2022-07-29T00:04:51;2.93;;;1.40;;
48935;SDS011;34745;52.276;10.528;2022-07-29T00:07:18;5.57;;;1.52;;
48935;SDS011;34745;52.276;10.528;2022-07-29T00:09:46;4.88;;;1.63;;
48935;SDS011;34745;52.276;10.528;2022-07-29T00:12:16;2.92;;;1.60;;
48935;SDS011;34745;52.276;10.528;2022-07-29T00:14:53;4.75;;;1.70;;
48935;SDS011;34745;52.276;10.528;2022-07-29T00:17:21;6.25;;;1.50;;
48935;SDS011;34745;52.276;10.528;2022-07-29T00:19:49;5.85;;;1.60;;
48935;SDS011;34745;52.276;10.528;2022-07-29T00:22:16;2.22;;;1.60;;
48935;SDS011;34745;52.276;10.528;2022-07-29T00:24:43;3.50;;;1.60;;
48935;SDS011;34745;52.276;10.528;2022-07-29T00:27:10;3.07;;;1.43;;
48935;SDS011;34745;52.276;10.528;2022-07-29T00:29:37;4.53;;;1.73;;
48935;SDS011;34745;52.276;10.528;2022-07-29T00:32:06;6.72;;;1.75;;
48935;SDS011;34745;52.276;10.528;2022-07-29T00:34:33;7.30;;;1.60;;
48935;SDS011;34745;52.276;10.528;2022-07-29T00:37:18;5.97;;;1.50;;
48935;SDS011;34745;52.276;10.528;2022-07-29T00:39:45;7.07;;;1.47;;
48935;SDS011;34745;52.276;10.528;2022-07-29T00:42:12;4.50;;;1.55;;
48935;SDS011;34745;52.276;10.528;2022-07-29T00:44:40;3.88;;;1.60;;
48935;SDS011;34745;52.276;10.528;2022-07-29T00:47:10;4.03;;;1.55;;
48935;SDS011;34745;52.276;10.528;2022-07-29T00:49:38;1.67;;;1.23;;
48935;SDS011;34745;52.276;10.528;2022-07-29T00:52:07;4.87;;;1.80;;
48935;SDS011;34745;52.276;10.528;2022-07-29T00:54:35;3.23;;;1.53;;
48935;SDS011;34745;52.276;10.528;2022-07-29T00:57:10;3.77;;;1.70;;
48935;SDS011;34745;52.276;10.528;2022-07-29T00:59:38;8.02;;;1.70;;
48935;SDS011;34745;52.276;10.528;2022-07-29T01:02:06;8.63;;;1.83;;
48935;SDS011;34745;52.276;10.528;2022-07-29T01:04:34;9.35;;;1.80;;
48935;SDS011;34745;52.276;10.528;2022-07-29T01:07:02;3.37;;;1.70;;
48935;SDS011;34745;52.276;10.528;2022-07-29T01:09:30;5.63;;;1.43;;
48935;SDS011;34745;52.276;10.528;2022-07-29T01:12:12;9.67;;;1.50;;
48935;SDS011;34745;52.276;10.528;2022-07-29T01:14:41;4.30;;;1.50;;
48935;SDS011;34745;52.276;10.528;2022-07-29T01:17:10;6.85;;;1.65;;
48935;SDS011;34745;52.276;10.528;2022-07-29T01:19:47;3.70;;;1.30;;
48935;SDS011;34745;52.276;10.528;2022-07-29T01:22:25;7.13;;;1.53;;
48935;SDS011;34745;52.276;10.528;2022-07-29T01:25:00;1.70;;;1.60;;
48935;SDS011;34745;52.276;10.528;2022-07-29T01:27:45;3.90;;;1.40;;
48935;SDS011;34745;52.276;10.528;2022-07-29T01:30:27;5.20;;;1.70;;
48935;SDS011;34745;52.276;10.528;2022-07-29T01:32:58;3.07;;;1.40;;
48935;SDS011;34745;52.276;10.528;2022-07-29T01:35:30;6.15;;;1.90;;
48935;SDS011;34745;52.276;10.528;2022-07-29T01:38:05;3.70;;;1.67;;
48935;SDS011;34745;52.276;10.528;2022-07-29T01:40:36;6.70;;;1.50;;
48935;SDS011;34745;52.276;10.528;2022-07-29T01:43:10;5.03;;;1.63;;
48935;SDS011;34745;52.276;10.528;2022-07-29T01:45:41;3.20;;;1.77;;
48935;SDS011;34745;52.276;10.528;2022-07-29T01:48:14;4.28;;;1.75;;
48935;SDS011;34745;52.276;10.528;2022-07-29T01:50:46;4.80;;;1.70;;
48935;SDS011;34745;52.276;10.528;2022-07-29T01:53:18;6.50;;;1.70;;
48935;SDS011;34745;52.276;10.528;2022-07-29T01:55:51;3.67;;;1.60;;
48935;SDS011;34745;52.276;10.528;2022-07-29T01:58:24;5.40;;;1.50;;
48935;SDS011;34745;52.276;10.528;2022-07-29T02:00:53;4.93;;;1.53;;
48935;SDS011;34745;52.276;10.528;2022-07-29T02:03:22;3.37;;;1.73;;
48935;SDS011;34745;52.276;10.528;2022-07-29T02:05:50;4.37;;;1.87;;
48935;SDS011;34745;52.276;10.528;2022-07-29T02:08:19;4.67;;;1.73;;
48935;SDS011;34745;52.276;10.528;2022-07-29T02:10:47;4.53;;;1.73;;
48935;SDS011;34745;52.276;10.528;2022-07-29T02:13:16;5.63;;;1.47;;
48935;SDS011;34745;52.276;10.528;2022-07-29T02:15:44;5.00;;;1.57;;
48935;SDS011;34745;52.276;10.528;2022-07-29T02:18:15;7.10;;;1.53;;
48935;SDS011;34745;52.276;10.528;2022-07-29T02:20:45;2.53;;;1.60;;
48935;SDS011;34745;52.276;10.528;2022-07-29T02:23:16;4.57;;;1.73;;
48935;SDS011;34745;52.276;10.528;2022-07-29T02:25:46;1.70;;;1.50;;
48935;SDS011;34745;52.276;10.528;2022-07-29T02:28:16;3.93;;;1.63;;
48935;SDS011;34745;52.276;10.528;2022-07-29T02:30:45;4.50;;;1.80;;
48935;SDS011;34745;52.276;10.528;2022-07-29T02:33:15;2.77;;;1.50;;
48935;SDS011;34745;52.276;10.528;2022-07-29T02:35:45;4.13;;;1.80;;
48935;SDS011;34745;52.276;10.528;2022-07-29T02:38:14;3.40;;;1.70;;
48935;SDS011;34745;52.276;10.528;2022-07-29T02:41:03;4.37;;;1.53;;
48935;SDS011;34745;52.276;10.528;2022-07-29T02:43:32;6.40;;;1.50;;
48935;SDS011;34745;52.276;10.528;2022-07-29T02:46:00;7.40;;;1.60;;
48935;SDS011;34745;52.276;10.528;2022-07-29T02:48:41;5.50;;;1.90;;
48935;SDS011;34745;52.276;10.528;2022-07-29T02:51:17;5.00;;;1.80;;
48935;SDS011;34745;52.276;10.528;2022-07-29T02:54:09;4.50;;;1.70;;
48935;SDS011;34745;52.276;10.528;2022-07-29T02:56:42;8.27;;;1.80;;
48935;SDS011;34745;52.276;10.528;2022-07-29T02:59:13;3.87;;;1.40;;
48935;SDS011;34745;52.276;10.528;2022-07-29T03:01:45;3.30;;;1.50;;
48935;SDS011;34745;52.276;10.528;2022-07-29T03:04:13;4.10;;;1.60;;
48935;SDS011;34745;52.276;10.528;2022-07-29T03:06:43;3.03;;;1.47;;
48935;SDS011;34745;52.276;10.528;2022-07-29T03:09:12;7.07;;;1.87;;
48935;SDS011;34745;52.276;10.528;2022-07-29T03:11:40;3.77;;;1.60;;
48935;SDS011;34745;52.276;10.528;2022-07-29T03:14:16;6.80;;;1.70;;
48935;SDS011;34745;52.276;10.528;2022-07-29T03:16:45;3.20;;;1.70;;
48935;SDS011;34745;52.276;10.528;2022-07-29T03:19:14;3.60;;;1.63;;
48935;SDS011;34745;52.276;10.528;2022-07-29T03:21:42;4.87;;;1.67;;
48935;SDS011;34745;52.276;10.528;2022-07-29T03:24:09;3.77;;;1.40;;
48935;SDS011;34745;52.276;10.528;2022-07-29T03:26:36;3.00;;;1.60;;
48935;SDS011;34745;52.276;10.528;2022-07-29T03:29:03;3.23;;;1.57;;
48935;SDS011;34745;52.276;10.528;2022-07-29T03:31:31;2.70;;;1.70;;
48935;SDS011;34745;52.276;10.528;2022-07-29T03:33:58;14.50;;;2.00;;
48935;SDS011;34745;52.276;10.528;2022-07-29T03:36:27;5.17;;;1.97;;
48935;SDS011;34745;52.276;10.528;2022-07-29T03:38:54;4.70;;;1.87;;
48935;SDS011;34745;52.276;10.528;2022-07-29T03:41:22;3.57;;;1.50;;
48935;SDS011;34745;52.276;10.528;2022-07-29T03:43:49;4.93;;;1.70;;
48935;SDS011;34745;52.276;10.528;2022-07-29T03:46:19;7.17;;;1.80;;
48935;SDS011;34745;52.276;10.528;2022-07-29T03:48:48;4.13;;;1.80;;
48935;SDS011;34745;52.276;10.528;2022-07-29T03:51:19;4.23;;;1.77;;
48935;SDS011;34745;52.276;10.528;2022-07-29T03:54:00;6.17;;;1.80;;
48935;SDS011;34745;52.276;10.528;2022-07-29T03:56:37;8.17;;;1.80;;
48935;SDS011;34745;52.276;10.528;2022-07-29T03:59:06;5.00;;;1.80;;
48935;SDS011;34745;52.276;10.528;2022-07-29T04:01:34;9.13;;;2.40;;
48935;SDS011;34745;52.276;10.528;2022-07-29T04:04:02;7.87;;;2.00;;
48935;SDS011;34745;52.276;10.528;2022-07-29T04:06:37;6.73;;;1.97;;
48935;SDS011;34745;52.276;10.528;2022-07-29T04:09:06;3.23;;;1.70;;
48935;SDS011;34745;52.276;10.528;2022-07-29T04:11:35;4.50;;;1.93;;
48935;SDS011;34745;52.276;10.528;2022-07-29T04:14:23;7.93;;;2.47;;
48935;SDS011;34745;52.276;10.528;2022-07-29T04:16:50;4.77;;;2.20;;
48935;SDS011;34745;52.276;10.528;2022-07-29T04:19:17;4.63;;;1.60;;
48935;SDS011;34745;52.276;10.528;2022-07-29T04:21:44;8.57;;;2.27;;
48935;SDS011;34745;52.276;10.528;2022-07-29T04:24:12;3.57;;;1.90;;
48935;SDS011;34745;52.276;10.528;2022-07-29T04:26:41;5.27;;;2.20;;
48935;SDS011;34745;52.276;10.528;2022-07-29T04:29:08;8.27;;;1.90;;
48935;SDS011;34745;52.276;10.528;2022-07-29T04:31:35;5.73;;;2.00;;
48935;SDS011;34745;52.276;10.528;2022-07-29T04:34:02;5.20;;;2.20;;
48935;SDS011;34745;52.276;10.528;2022-07-29T04:36:30;8.77;;;2.27;;
48935;SDS011;34745;52.276;10.528;2022-07-29T04:38:56;7.27;;;2.00;;
48935;SDS011;34745;52.276;10.528;2022-07-29T04:41:25;11.50;;;2.40;;
48935;SDS011;34745;52.276;10.528;2022-07-29T04:43:58;8.87;;;2.13;;
48935;SDS011;34745;52.276;10.528;2022-07-29T04:46:27;6.17;;;2.03;;
48935;SDS011;34745;52.276;10.528;2022-07-29T04:48:54;12.63;;;2.73;;
48935;SDS011;34745;52.276;10.528;2022-07-29T04:51:21;3.43;;;2.00;;
48935;SDS011;34745;52.276;10.528;2022-07-29T04:53:48;6.47;;;2.17;;
48935;SDS011;34745;52.276;10.528;2022-07-29T04:56:15;9.60;;;2.20;;
48935;SDS011;34745;52.276;10.528;2022-07-29T04:58:44;8.18;;;2.10;;
48935;SDS011;34745;52.276;10.528;2022-07-29T05:01:11;6.33;;;2.17;;
48935;SDS011;34745;52.276;10.528;2022-07-29T05:03:38;6.93;;;2.20;;
48935;SDS011;34745;52.276;10.528;2022-07-29T05:06:05;15.10;;;2.30;;
48935;SDS011;34745;52.276;10.528;2022-07-29T05:08:32;6.87;;;2.20;;
48935;SDS011;34745;52.276;10.528;2022-07-29T05:10:59;6.60;;;2.30;;
48935;SDS011;34745;52.276;10.528;2022-07-29T05:13:38;13.33;;;2.17;;
48935;SDS011;34745;52.276;10.528;2022-07-29T05:16:13;9.87;;;2.40;;
48935;SDS011;34745;52.276;10.528;2022-07-29T05:18:40;5.40;;;1.90;;
48935;SDS011;34745;52.276;10.528;2022-07-29T05:21:08;12.67;;;2.83;;
48935;SDS011;34745;52.276;10.528;2022-07-29T05:23:35;13.07;;;2.60;;
48935;SDS011;34745;52.276;10.528;2022-07-29T05:26:02;6.67;;;2.20;;
48935;SDS011;34745;52.276;10.528;2022-07-29T05:28:32;6.37;;;2.80;;
48935;SDS011;34745;52.276;10.528;2022-07-29T05:30:59;14.80;;;3.70;;
48935;SDS011;34745;52.276;10.528;2022-07-29T05:33:27;13.45;;;3.17;;
48935;SDS011;34745;52.276;10.528;2022-07-29T05:36:02;8.80;;;2.53;;
48935;SDS011;34745;52.276;10.528;2022-07-29T05:38:31;10.97;;;2.90;;
48935;SDS011;34745;52.276;10.528;2022-07-29T05:40:59;6.40;;;2.40;;
48935;SDS011;34745;52.276;10.528;2022-07-29T05:43:26;11.53;;;2.90;;
48935;SDS011;34745;52.276;10.528;2022-07-29T05:45:53;22.50;;;3.30;;
48935;SDS011;34745;52.276;10.528;2022-07-29T05:48:20;13.05;;;2.53;;
48935;SDS011;34745;52.276;10.528;2022-07-29T05:50:48;8.73;;;2.60;;
48935;SDS011;34745;52.276;10.528;2022-07-29T05:53:15;7.10;;;3.00;;
48935;SDS011;34745;52.276;10.528;2022-07-29T05:55:45;10.90;;;2.67;;
48935;SDS011;34745;52.276;10.528;2022-07-29T05:58:13;20.38;;;2.78;;
48935;SDS011;34745;52.276;10.528;2022-07-29T06:00:40;9.02;;;2.33;;
48935;SDS011;34745;52.276;10.528;2022-07-29T06:03:07;11.88;;;2.60;;
48935;SDS011;34745;52.276;10.528;2022-07-29T06:05:34;12.13;;;3.08;;
48935;SDS011;34745;52.276;10.528;2022-07-29T06:08:02;12.40;;;2.72;;
48935;SDS011;34745;52.276;10.528;2022-07-29T06:10:34;7.28;;;2.53;;
48935;SDS011;34745;52.276;10.528;2022-07-29T06:13:01;7.53;;;3.10;;
48935;SDS011;34745;52.276;10.528;2022-07-29T06:18:06;7.43;;;2.70;;
48935;SDS011;34745;52.276;10.528;2022-07-29T06:20:36;6.78;;;2.65;;
48935;SDS011;34745;52.276;10.528;2022-07-29T06:23:05;6.68;;;2.63;;
48935;SDS011;34745;52.276;10.528;2022-07-29T06:25:32;8.35;;;2.88;;
48935;SDS011;34745;52.276;10.528;2022-07-29T06:28:01;6.78;;;2.60;;
48935;SDS011;34745;52.276;10.528;2022-07-29T06:30:28;11.82;;;3.08;;
48935;SDS011;34745;52.276;10.528;2022-07-29T06:32:55;10.82;;;3.00;;
48935;SDS011;34745;52.276;10.528;2022-07-29T06:35:23;13.55;;;4.43;;
48935;SDS011;34745;52.276;10.528;2022-07-29T06:38:08;8.60;;;3.03;;
48935;SDS011;34745;52.276;10.528;2022-07-29T06:40:56;19.75;;;3.47;;
48935;SDS011;34745;52.276;10.528;2022-07-29T06:43:27;9.10;;;3.10;;
48935;SDS011;34745;52.276;10.528;2022-07-29T06:45:58;8.60;;;3.15;;
48935;SDS011;34745;52.276;10.528;2022-07-29T06:48:26;9.45;;;3.00;;
48935;SDS011;34745;52.276;10.528;2022-07-29T06:50:53;8.88;;;2.95;;
48935;SDS011;34745;52.276;10.528;2022-07-29T06:53:21;7.53;;;3.00;;
48935;SDS011;34745;52.276;10.528;2022-07-29T06:55:49;16.02;;;3.63;;
48935;SDS011;34745;52.276;10.528;2022-07-29T06:58:16;7.50;;;3.30;;
48935;SDS011;34745;52.276;10.528;2022-07-29T07:00:46;11.90;;;3.08;;
48935;SDS011;34745;52.276;10.528;2022-07-29T07:03:14;6.75;;;2.90;;
48935;SDS011;34745;52.276;10.528;2022-07-29T07:05:42;8.98;;;3.13;;
48935;SDS011;34745;52.276;10.528;2022-07-29T07:08:09;7.95;;;2.97;;
48935;SDS011;34745;52.276;10.528;2022-07-29T07:10:38;11.32;;;2.90;;
48935;SDS011;34745;52.276;10.528;2022-07-29T07:13:06;8.07;;;3.40;;
48935;SDS011;34745;52.276;10.528;2022-07-29T07:15:33;10.35;;;3.50;;
48935;SDS011;34745;52.276;10.528;2022-07-29T07:18:05;12.65;;;3.50;;
48935;SDS011;34745;52.276;10.528;2022-07-29T07:20:32;8.68;;;3.30;;
48935;SDS011;34745;52.276;10.528;2022-07-29T07:22:59;5.72;;;3.10;;
48935;SDS011;34745;52.276;10.528;2022-07-29T07:25:27;5.68;;;3.58;;
48935;SDS011;34745;52.276;10.528;2022-07-29T07:27:55;8.70;;;3.40;;
48935;SDS011;34745;52.276;10.528;2022-07-29T07:30:23;10.38;;;3.60;;
48935;SDS011;34745;52.276;10.528;2022-07-29T07:32:50;10.95;;;3.67;;
48935;SDS011;34745;52.276;10.528;2022-07-29T07:35:17;9.30;;;4.30;;
48935;SDS011;34745;52.276;10.528;2022-07-29T07:37:44;6.95;;;3.45;;
48935;SDS011;34745;52.276;10.528;2022-07-29T07:40:11;10.60;;;4.20;;
48935;SDS011;34745;52.276;10.528;2022-07-29T07:42:44;11.32;;;3.53;;
48935;SDS011;34745;52.276;10.528;2022-07-29T07:45:13;12.35;;;3.83;;
48935;SDS011;34745;52.276;10.528;2022-07-29T07:47:41;7.55;;;3.33;;
48935;SDS011;34745;52.276;10.528;2022-07-29T07:50:10;7.57;;;2.75;;
48935;SDS011;34745;52.276;10.528;2022-07-29T07:52:47;7.65;;;3.35;;
48935;SDS011;34745;52.276;10.528;2022-07-29T07:55:15;9.90;;;2.85;;
48935;SDS011;34745;52.276;10.528;2022-07-29T07:57:43;10.98;;;3.28;;
48935;SDS011;34745;52.276;10.528;2022-07-29T08:00:11;10.88;;;3.47;;
48935;SDS011;34745;52.276;10.528;2022-07-29T08:02:40;7.20;;;3.47;;
48935;SDS011;34745;52.276;10.528;2022-07-29T08:05:09;13.43;;;3.40;;
48935;SDS011;34745;52.276;10.528;2022-07-29T08:07:38;9.70;;;3.03;;
48935;SDS011;34745;52.276;10.528;2022-07-29T08:10:05;7.45;;;3.05;;
48935;SDS011;34745;52.276;10.528;2022-07-29T08:12:33;7.95;;;3.33;;
48935;SDS011;34745;52.276;10.528;2022-07-29T08:15:00;6.78;;;3.58;;
48935;SDS011;34745;52.276;10.528;2022-07-29T08:17:28;6.78;;;3.60;;
48935;SDS011;34745;52.276;10.528;2022-07-29T08:20:00;10.77;;;3.17;;
48935;SDS011;34745;52.276;10.528;2022-07-29T08:22:28;8.57;;;3.25;;
48935;SDS011;34745;52.276;10.528;2022-07-29T08:24:55;5.97;;;3.08;;
48935;SDS011;34745;52.276;10.528;2022-07-29T08:27:22;10.45;;;2.78;;
48935;SDS011;34745;52.276;10.528;2022-07-29T08:30:09;10.00;;;3.25;;
48935;SDS011;34745;52.276;10.528;2022-07-29T08:32:38;8.63;;;3.50;;
48935;SDS011;34745;52.276;10.528;2022-07-29T08:35:21;10.20;;;3.15;;
48935;SDS011;34745;52.276;10.528;2022-07-29T08:37:49;8.32;;;3.22;;
48935;SDS011;34745;52.276;10.528;2022-07-29T08:40:17;13.93;;;4.53;;
48935;SDS011;34745;52.276;10.528;2022-07-29T08:42:44;14.95;;;3.65;;
48935;SDS011;34745;52.276;10.528;2022-07-29T08:45:11;9.40;;;3.55;;
48935;SDS011;34745;52.276;10.528;2022-07-29T08:47:40;11.80;;;3.33;;
48935;SDS011;34745;52.276;10.528;2022-07-29T08:50:07;10.55;;;2.80;;
48935;SDS011;34745;52.276;10.528;2022-07-29T08:52:35;8.10;;;2.95;;
48935;SDS011;34745;52.276;10.528;2022-07-29T08:55:05;10.75;;;3.63;;
48935;SDS011;34745;52.276;10.528;2022-07-29T08:57:34;20.60;;;3.20;;
48935;SDS011;34745;52.276;10.528;2022-07-29T09:00:03;8.35;;;3.05;;
48935;SDS011;34745;52.276;10.528;2022-07-29T09:02:40;8.02;;;2.60;;
48935;SDS011;34745;52.276;10.528;2022-07-29T09:05:12;11.23;;;3.03;;
48935;SDS011;34745;52.276;10.528;2022-07-29T09:07:40;7.07;;;3.35;;
48935;SDS011;34745;52.276;10.528;2022-07-29T09:10:09;9.30;;;3.35;;
48935;SDS011;34745;52.276;10.528;2022-07-29T09:12:36;9.48;;;3.05;;
48935;SDS011;34745;52.276;10.528;2022-07-29T09:15:04;12.07;;;3.25;;
48935;SDS011;34745;52.276;10.528;2022-07-29T09:17:43;8.52;;;3.03;;
48935;SDS011;34745;52.276;10.528;2022-07-29T09:20:12;10.98;;;3.53;;
48935;SDS011;34745;52.276;10.528;2022-07-29T09:22:41;8.05;;;3.50;;
48935;SDS011;34745;52.276;10.528;2022-07-29T09:25:10;7.07;;;3.00;;
48935;SDS011;34745;52.276;10.528;2022-07-29T09:27:38;9.52;;;4.47;;
48935;SDS011;34745;52.276;10.528;2022-07-29T09:30:06;9.18;;;3.10;;
48935;SDS011;34745;52.276;10.528;2022-07-29T09:35:24;12.75;;;2.85;;
48935;SDS011;34745;52.276;10.528;2022-07-29T09:37:52;5.10;;;3.10;;
48935;SDS011;34745;52.276;10.528;2022-07-29T09:40:21;8.73;;;3.13;;
48935;SDS011;34745;52.276;10.528;2022-07-29T09:42:50;9.38;;;3.30;;
48935;SDS011;34745;52.276;10.528;2022-07-29T09:45:26;10.60;;;2.80;;
48935;SDS011;34745;52.276;10.528;2022-07-29T09:47:56;10.82;;;2.70;;
48935;SDS011;34745;52.276;10.528;2022-07-29T09:50:36;8.27;;;3.22;;
48935;SDS011;34745;52.276;10.528;2022-07-29T09:53:04;8.75;;;3.00;;
48935;SDS011;34745;52.276;10.528;2022-07-29T09:55:32;10.00;;;2.95;;
48935;SDS011;34745;52.276;10.528;2022-07-29T10:00:51;13.73;;;4.35;;
48935;SDS011;34745;52.276;10.528;2022-07-29T10:03:22;24.02;;;5.00;;
48935;SDS011;34745;52.276;10.528;2022-07-29T10:06:03;13.73;;;3.83;;
48935;SDS011;34745;52.276;10.528;2022-07-29T10:08:32;9.18;;;3.10;;
48935;SDS011;34745;52.276;10.528;2022-07-29T10:11:08;20.23;;;3.25;;
48935;SDS011;34745;52.276;10.528;2022-07-29T10:13:38;11.85;;;3.17;;
48935;SDS011;34745;52.276;10.528;2022-07-29T10:16:07;13.13;;;3.17;;
48935;SDS011;34745;52.276;10.528;2022-07-29T10:18:38;5.95;;;2.97;;
48935;SDS011;34745;52.276;10.528;2022-07-29T10:21:06;6.80;;;2.92;;
48935;SDS011;34745;52.276;10.528;2022-07-29T10:23:58;9.60;;;3.00;;
48935;SDS011;34745;52.276;10.528;2022-07-29T10:26:29;7.03;;;2.85;;
48935;SDS011;34745;52.276;10.528;2022-07-29T10:28:57;11.48;;;2.97;;
48935;SDS011;34745;52.276;10.528;2022-07-29T10:31:27;7.72;;;2.97;;
48935;SDS011;34745;52.276;10.528;2022-07-29T10:34:07;7.57;;;3.40;;
48935;SDS011;34745;52.276;10.528;2022-07-29T10:36:45;8.70;;;3.00;;
48935;SDS011;34745;52.276;10.528;2022-07-29T10:39:26;7.38;;;3.10;;
48935;SDS011;34745;52.276;10.528;2022-07-29T10:42:16;5.53;;;2.75;;
48935;SDS011;34745;52.276;10.528;2022-07-29T10:45:00;14.50;;;3.25;;
48935;SDS011;34745;52.276;10.528;2022-07-29T10:47:31;7.90;;;3.17;;
48935;SDS011;34745;52.276;10.528;2022-07-29T10:50:05;10.90;;;3.00;;
48935;SDS011;34745;52.276;10.528;2022-07-29T10:52:52;7.70;;;3.17;;
48935;SDS011;34745;52.276;10.528;2022-07-29T10:55:30;7.63;;;3.28;;
48935;SDS011;34745;52.276;10.528;2022-07-29T10:58:13;16.02;;;3.10;;
48935;SDS011;34745;52.276;10.528;2022-07-29T11:00:43;15.30;;;3.20;;
48935;SDS011;34745;52.276;10.528;2022-07-29T11:06:17;5.68;;;2.83;;
48935;SDS011;34745;52.276;10.528;2022-07-29T11:12:03;5.60;;;3.03;;
48935;SDS011;34745;52.276;10.528;2022-07-29T11:14:56;6.30;;;3.20;;
48935;SDS011;34745;52.276;10.528;2022-07-29T11:17:25;8.73;;;3.05;;
48935;SDS011;34745;52.276;10.528;2022-07-29T11:22:57;7.07;;;2.85;;
48935;SDS011;34745;52.276;10.528;2022-07-29T11:25:24;6.63;;;2.75;;
48935;SDS011;34745;52.276;10.528;2022-07-29T11:28:13;12.52;;;2.60;;
48935;SDS011;34745;52.276;10.528;2022-07-29T11:30:52;11.05;;;3.33;;
48935;SDS011;34745;52.276;10.528;2022-07-29T11:33:26;6.07;;;2.80;;
48935;SDS011;34745;52.276;10.528;2022-07-29T11:36:15;7.75;;;3.05;;
48935;SDS011;34745;52.276;10.528;2022-07-29T11:38:42;13.07;;;2.97;;
48935;SDS011;34745;52.276;10.528;2022-07-29T11:43:58;11.52;;;2.60;;
48935;SDS011;34745;52.276;10.528;2022-07-29T11:46:44;17.80;;;3.50;;
48935;SDS011;34745;52.276;10.528;2022-07-29T11:49:13;4.63;;;2.42;;
48935;SDS011;34745;52.276;10.528;2022-07-29T11:51:49;11.88;;;2.70;;
48935;SDS011;34745;52.276;10.528;2022-07-29T11:54:21;9.30;;;2.70;;
48935;SDS011;34745;52.276;10.528;2022-07-29T11:56:53;14.95;;;2.85;;
48935;SDS011;34745;52.276;10.528;2022-07-29T11:59:21;14.38;;;3.28;;
48935;SDS011;34745;52.276;10.528;2022-07-29T12:02:00;9.80;;;2.88;;
48935;SDS011;34745;52.276;10.528;2022-07-29T12:04:50;7.25;;;3.00;;
48935;SDS011;34745;52.276;10.528;2022-07-29T12:07:18;11.93;;;3.10;;
48935;SDS011;34745;52.276;10.528;2022-07-29T12:09:49;6.03;;;3.05;;
48935;SDS011;34745;52.276;10.528;2022-07-29T12:12:22;13.45;;;3.40;;
48935;SDS011;34745;52.276;10.528;2022-07-29T12:14:49;9.38;;;3.30;;
48935;SDS011;34745;52.276;10.528;2022-07-29T12:17:28;6.97;;;2.65;;
48935;SDS011;34745;52.276;10.528;2022-07-29T12:19:57;10.18;;;2.70;;
48935;SDS011;34745;52.276;10.528;2022-07-29T12:22:28;4.10;;;2.55;;
48935;SDS011;34745;52.276;10.528;2022-07-29T12:25:00;7.03;;;3.08;;
48935;SDS011;34745;52.276;10.528;2022-07-29T12:27:57;7.15;;;2.85;;
48935;SDS011;34745;52.276;10.528;2022-07-29T12:30:34;6.70;;;2.72;;
48935;SDS011;34745;52.276;10.528;2022-07-29T12:33:11;10.88;;;3.30;;
48935;SDS011;34745;52.276;10.528;2022-07-29T12:35:41;8.23;;;2.75;;
48935;SDS011;34745;52.276;10.528;2022-07-29T12:38:13;8.32;;;2.83;;
48935;SDS011;34745;52.276;10.528;2022-07-29T12:40:41;3.22;;;2.83;;
48935;SDS011;34745;52.276;10.528;2022-07-29T12:43:09;13.90;;;3.20;;
48935;SDS011;34745;52.276;10.528;2022-07-29T12:45:38;3.53;;;2.90;;
48935;SDS011;34745;52.276;10.528;2022-07-29T12:48:06;4.90;;;2.90;;
48935;SDS011;34745;52.276;10.528;2022-07-29T12:50:51;8.00;;;3.00;;
48935;SDS011;34745;52.276;10.528;2022-07-29T12:53:20;8.93;;;3.08;;
48935;SDS011;34745;52.276;10.528;2022-07-29T12:55:47;4.97;;;3.10;;
48935;SDS011;34745;52.276;10.528;2022-07-29T12:58:27;6.57;;;3.05;;
48935;SDS011;34745;52.276;10.528;2022-07-29T13:01:06;3.53;;;2.50;;
48935;SDS011;34745;52.276;10.528;2022-07-29T13:03:43;6.10;;;2.95;;
48935;SDS011;34745;52.276;10.528;2022-07-29T13:06:31;14.35;;;2.78;;
48935;SDS011;34745;52.276;10.528;2022-07-29T13:09:15;7.13;;;3.10;;
48935;SDS011;34745;52.276;10.528;2022-07-29T13:11:44;10.52;;;3.20;;
48935;SDS011;34745;52.276;10.528;2022-07-29T13:14:20;7.88;;;3.45;;
48935;SDS011;34745;52.276;10.528;2022-07-29T13:17:02;8.98;;;3.15;;
48935;SDS011;34745;52.276;10.528;2022-07-29T13:19:32;3.58;;;2.85;;
48935;SDS011;34745;52.276;10.528;2022-07-29T13:22:02;6.90;;;2.90;;
48935;SDS011;34745;52.276;10.528;2022-07-29T13:24:29;4.25;;;2.60;;
48935;SDS011;34745;52.276;10.528;2022-07-29T13:26:56;6.03;;;3.40;;
48935;SDS011;34745;52.276;10.528;2022-07-29T13:29:24;6.90;;;3.25;;
48935;SDS011;34745;52.276;10.528;2022-07-29T13:31:56;8.80;;;2.60;;
48935;SDS011;34745;52.276;10.528;2022-07-29T13:34:24;7.47;;;2.88;;
48935;SDS011;34745;52.276;10.528;2022-07-29T13:36:51;13.55;;;2.83;;
48935;SDS011;34745;52.276;10.528;2022-07-29T13:39:20;5.85;;;2.80;;
48935;SDS011;34745;52.276;10.528;2022-07-29T13:41:46;5.25;;;2.80;;
48935;SDS011;34745;52.276;10.528;2022-07-29T13:44:14;3.50;;;2.90;;
48935;SDS011;34745;52.276;10.528;2022-07-29T13:46:41;7.20;;;2.80;;
48935;SDS011;34745;52.276;10.528;2022-07-29T13:49:08;10.23;;;5.15;;
48935;SDS011;34745;52.276;10.528;2022-07-29T13:51:37;7.90;;;3.90;;
48935;SDS011;34745;52.276;10.528;2022-07-29T13:54:04;19.35;;;5.30;;
48935;SDS011;34745;52.276;10.528;2022-07-29T13:56:32;9.40;;;3.33;;
48935;SDS011;34745;52.276;10.528;2022-07-29T13:59:00;5.93;;;2.90;;
48935;SDS011;34745;52.276;10.528;2022-07-29T14:01:27;4.85;;;3.05;;
48935;SDS011;34745;52.276;10.528;2022-07-29T14:03:54;3.90;;;2.58;;
48935;SDS011;34745;52.276;10.528;2022-07-29T14:06:21;10.35;;;2.90;;
48935;SDS011;34745;52.276;10.528;2022-07-29T14:08:48;8.32;;;2.67;;
48935;SDS011;34745;52.276;10.528;2022-07-29T14:11:14;7.28;;;2.83;;
48935;SDS011;34745;52.276;10.528;2022-07-29T14:13:44;9.15;;;3.10;;
48935;SDS011;34745;52.276;10.528;2022-07-29T14:16:11;7.90;;;3.13;;
48935;SDS011;34745;52.276;10.528;2022-07-29T14:18:38;7.93;;;3.30;;
48935;SDS011;34745;52.276;10.528;2022-07-29T14:21:05;6.55;;;3.08;;
48935;SDS011;34745;52.276;10.528;2022-07-29T14:23:32;5.93;;;2.70;;
48935;SDS011;34745;52.276;10.528;2022-07-29T14:25:59;17.73;;;2.60;;
48935;SDS011;34745;52.276;10.528;2022-07-29T14:28:27;9.15;;;4.05;;
48935;SDS011;34745;52.276;10.528;2022-07-29T14:30:55;13.05;;;7.20;;
48935;SDS011;34745;52.276;10.528;2022-07-29T14:33:22;9.65;;;4.65;;
48935;SDS011;34745;52.276;10.528;2022-07-29T14:35:49;10.05;;;2.83;;
48935;SDS011;34745;52.276;10.528;2022-07-29T14:38:16;5.93;;;2.65;;
48935;SDS011;34745;52.276;10.528;2022-07-29T14:40:46;5.95;;;2.63;;
48935;SDS011;34745;52.276;10.528;2022-07-29T14:43:16;4.88;;;2.63;;
48935;SDS011;34745;52.276;10.528;2022-07-29T14:45:43;5.03;;;2.40;;
48935;SDS011;34745;52.276;10.528;2022-07-29T14:48:11;5.13;;;2.70;;
48935;SDS011;34745;52.276;10.528;2022-07-29T14:50:38;4.90;;;2.20;;
48935;SDS011;34745;52.276;10.528;2022-07-29T14:53:05;7.72;;;3.33;;
48935;SDS011;34745;52.276;10.528;2022-07-29T14:55:32;6.40;;;2.80;;
48935;SDS011;34745;52.276;10.528;2022-07-29T14:58:00;5.85;;;2.70;;
48935;SDS011;34745;52.276;10.528;2022-07-29T15:00:37;6.68;;;2.72;;
48935;SDS011;34745;52.276;10.528;2022-07-29T15:03:04;6.65;;;2.30;;
48935;SDS011;34745;52.276;10.528;2022-07-29T15:05:37;6.35;;;2.47;;
48935;SDS011;34745;52.276;10.528;2022-07-29T15:08:05;6.70;;;2.50;;
48935;SDS011;34745;52.276;10.528;2022-07-29T15:10:34;5.75;;;2.40;;
48935;SDS011;34745;52.276;10.528;2022-07-29T15:13:01;10.13;;;2.78;;